Terminal Aerodrome Forecast
Issued by NWS Sioux Falls, SD

Home | Current Version | Previous Version | Graphics & Text | Print | Product List | Glossary On
Versions: 1 2 3 4 5 6 7 8 9 10 11 12 13 14 15 16
000
FTUS43 KFSD 160818 AAB
TAFFSD
TAF AMD
KFSD 160818Z 1608/1706 34024G34KT 6SM -SN OVC018
      TEMPO 1608/1610 4SM -SN BLSN
     FM161000 34016G25KT P6SM OVC018
     FM161900 33014KT P6SM SCT018
     FM170000 33005KT P6SM SKC=

USA.gov is the U.S. government's official web portal to all federal, state and local government web resources and services.